Time;durP1;ratioP1;P1;durP2;ratioP2;P2;SDS_P1;SDS_P2;PMS_P1;PMS_P2;Temp;Humidity;BMP_temperature;BMP_pressure;BME280_temperature;BME280_humidity;BME280_pressure;Samples;Min_cycle;Max_cycle;Signal;HPM_P1;HPM_P2
2022/03/03 00:02:16;;;;;;;10.35;5.82;;;;;;;;;;5051675;28;20021;-59
2022/03/03 00:04:42;;;;;;;10.75;5.70;;;;;;;;;;5052219;28;20088;-59
2022/03/03 00:07:08;;;;;;;10.23;5.85;;;;;;;;;;5052018;28;20076;-59
2022/03/03 00:09:34;;;;;;;11.63;5.97;;;;;;;;;;5050968;28;20043;-59
2022/03/03 00:12:00;;;;;;;10.57;5.32;;;;;;;;;;5051917;28;20108;-59
2022/03/03 00:14:26;;;;;;;9.85;5.25;;;;;;;;;;5052148;28;20143;-60
2022/03/03 00:16:52;;;;;;;9.80;6.50;;;;;;;;;;5052225;28;20032;-60
2022/03/03 00:19:18;;;;;;;12.55;5.68;;;;;;;;;;5051383;28;20021;-60
2022/03/03 00:21:45;;;;;;;9.80;5.93;;;;;;;;;;5051178;28;20053;-59
2022/03/03 00:24:11;;;;;;;11.80;6.05;;;;;;;;;;5050903;28;20071;-59
2022/03/03 00:26:37;;;;;;;10.95;5.88;;;;;;;;;;5047129;28;20148;-60
2022/03/03 00:29:03;;;;;;;12.63;6.10;;;;;;;;;;5048650;28;20484;-60
2022/03/03 00:31:29;;;;;;;11.18;5.88;;;;;;;;;;5051261;28;20033;-60
2022/03/03 00:33:55;;;;;;;9.73;5.70;;;;;;;;;;5050956;28;20112;-60
2022/03/03 00:36:21;;;;;;;9.45;5.60;;;;;;;;;;5050241;28;20033;-61
2022/03/03 00:38:48;;;;;;;9.75;5.80;;;;;;;;;;5050497;28;20032;-61
2022/03/03 00:41:14;;;;;;;9.38;5.40;;;;;;;;;;5047725;28;20021;-59
2022/03/03 00:43:40;;;;;;;10.48;5.47;;;;;;;;;;5040139;28;20037;-60
2022/03/03 00:46:06;;;;;;;7.97;4.70;;;;;;;;;;5049562;28;20086;-59
2022/03/03 00:48:32;;;;;;;10.70;5.90;;;;;;;;;;5049430;28;20020;-60
2022/03/03 00:51:00;;;;;;;9.38;6.20;;;;;;;;;;5050358;28;20659;-60
2022/03/03 00:53:26;;;;;;;9.23;5.18;;;;;;;;;;5049713;28;20100;-59
2022/03/03 00:55:52;;;;;;;8.25;4.78;;;;;;;;;;5032504;28;20115;-58
2022/03/03 00:58:18;;;;;;;10.35;5.47;;;;;;;;;;5048241;28;20483;-59
2022/03/03 01:00:44;;;;;;;11.55;6.03;;;;;;;;;;5048596;28;20035;-60
2022/03/03 01:03:10;;;;;;;10.30;6.07;;;;;;;;;;5032018;28;20056;-60
2022/03/03 01:05:36;;;;;;;10.50;5.95;;;;;;;;;;5049792;28;20052;-59
2022/03/03 01:08:04;;;;;;;10.57;5.30;;;;;;;;;;5046230;28;20116;-60
2022/03/03 01:10:30;;;;;;;10.13;6.35;;;;;;;;;;5044889;28;20025;-60
2022/03/03 01:12:56;;;;;;;9.98;5.50;;;;;;;;;;5049754;28;20724;-60
2022/03/03 01:15:22;;;;;;;9.85;5.68;;;;;;;;;;5048664;28;20041;-59
2022/03/03 01:17:48;;;;;;;10.95;5.55;;;;;;;;;;5033248;28;20030;-60
2022/03/03 01:20:14;;;;;;;9.02;4.78;;;;;;;;;;5042131;28;20044;-57
2022/03/03 01:22:40;;;;;;;10.35;5.50;;;;;;;;;;5049523;28;20546;-59
2022/03/03 01:25:08;;;;;;;10.68;5.90;;;;;;;;;;5048975;28;20108;-59
2022/03/03 01:27:34;;;;;;;8.98;5.25;;;;;;;;;;5049098;28;20139;-59
2022/03/03 01:30:01;;;;;;;9.35;5.38;;;;;;;;;;5039930;28;20094;-59
2022/03/03 01:32:27;;;;;;;9.82;4.93;;;;;;;;;;5049329;28;20059;-58
2022/03/03 01:34:53;;;;;;;8.65;5.07;;;;;;;;;;5048755;28;20479;-57
2022/03/03 01:37:19;;;;;;;11.15;5.30;;;;;;;;;;5041834;28;20033;-58
2022/03/03 01:39:46;;;;;;;8.52;5.28;;;;;;;;;;5050667;28;20021;-60
2022/03/03 01:42:13;;;;;;;8.40;5.00;;;;;;;;;;5050620;28;20486;-60
2022/03/03 01:44:42;;;;;;;11.60;5.72;;;;;;;;;;5050335;28;20060;-59
2022/03/03 01:47:15;;;;;;;9.52;5.28;;;;;;;;;;5050388;28;20498;-59
2022/03/03 01:49:41;;;;;;;10.13;5.35;;;;;;;;;;5050763;28;20033;-58
2022/03/03 01:52:07;;;;;;;9.10;5.32;;;;;;;;;;5046620;28;20113;-58
2022/03/03 01:54:33;;;;;;;9.98;5.78;;;;;;;;;;5035323;28;20033;-59
2022/03/03 01:56:59;;;;;;;10.93;5.25;;;;;;;;;;5048205;28;20029;-60
2022/03/03 01:59:26;;;;;;;10.57;5.95;;;;;;;;;;5048830;28;20031;-59
2022/03/03 02:01:52;;;;;;;10.48;5.60;;;;;;;;;;5048668;28;20021;-58
2022/03/03 02:04:18;;;;;;;8.32;5.03;;;;;;;;;;5048717;28;20049;-58
2022/03/03 02:06:44;;;;;;;10.30;4.97;;;;;;;;;;5047279;28;20083;-61
2022/03/03 02:09:10;;;;;;;8.27;5.40;;;;;;;;;;5048872;28;20457;-59
2022/03/03 02:11:37;;;;;;;8.38;5.10;;;;;;;;;;5045610;28;20167;-59
2022/03/03 02:14:04;;;;;;;9.02;5.25;;;;;;;;;;5049483;28;20544;-62
2022/03/03 02:16:30;;;;;;;8.90;5.80;;;;;;;;;;5048055;28;20032;-59
2022/03/03 02:18:56;;;;;;;8.95;5.40;;;;;;;;;;5046764;28;20021;-59
2022/03/03 02:21:22;;;;;;;8.02;5.18;;;;;;;;;;5047888;28;20144;-60
2022/03/03 02:23:49;;;;;;;9.80;5.50;;;;;;;;;;5037128;28;20391;-60
2022/03/03 02:26:22;;;;;;;9.23;5.30;;;;;;;;;;5047661;28;20207;-59
2022/03/03 02:28:49;;;;;;;8.07;5.07;;;;;;;;;;5046792;28;20025;-60
2022/03/03 02:31:15;;;;;;;8.25;4.97;;;;;;;;;;5048738;28;20036;-60
2022/03/03 02:33:41;;;;;;;11.32;5.80;;;;;;;;;;5049852;28;20116;-60
2022/03/03 02:36:23;;;;;;;7.57;5.05;;;;;;;;;;5045652;28;20033;-60
2022/03/03 02:38:51;;;;;;;8.57;5.35;;;;;;;;;;5045432;28;20103;-60
2022/03/03 02:41:17;;;;;;;9.75;5.00;;;;;;;;;;5043847;28;20099;-59
2022/03/03 02:43:43;;;;;;;8.90;5.45;;;;;;;;;;5049096;28;20547;-60
2022/03/03 02:46:10;;;;;;;9.13;5.80;;;;;;;;;;5049455;28;20387;-60
2022/03/03 02:48:36;;;;;;;9.13;5.47;;;;;;;;;;5048664;28;20028;-60
2022/03/03 02:51:02;;;;;;;8.10;5.25;;;;;;;;;;5049804;28;20043;-61
2022/03/03 02:53:28;;;;;;;8.15;5.15;;;;;;;;;;5045220;28;20037;-60
2022/03/03 02:55:54;;;;;;;9.00;5.43;;;;;;;;;;5049491;28;20108;-60
2022/03/03 02:58:21;;;;;;;8.07;5.05;;;;;;;;;;5049352;28;20028;-59
2022/03/03 03:00:47;;;;;;;7.90;5.43;;;;;;;;;;5049528;28;20096;-59
2022/03/03 03:03:16;;;;;;;9.68;5.43;;;;;;;;;;5044618;28;20029;-59
2022/03/03 03:05:42;;;;;;;10.60;6.00;;;;;;;;;;5048499;28;20057;-60
2022/03/03 03:08:09;;;;;;;8.00;5.00;;;;;;;;;;5039108;28;20033;-59
2022/03/03 03:10:35;;;;;;;8.15;5.03;;;;;;;;;;5046391;28;20036;-59
2022/03/03 03:13:01;;;;;;;10.00;5.18;;;;;;;;;;5033702;28;20021;-60
2022/03/03 03:15:28;;;;;;;8.07;5.15;;;;;;;;;;5047565;28;20116;-61
2022/03/03 03:17:54;;;;;;;11.25;5.72;;;;;;;;;;5049132;28;20043;-62
2022/03/03 03:20:20;;;;;;;9.00;5.72;;;;;;;;;;5048786;28;20029;-60
2022/03/03 03:22:46;;;;;;;7.28;4.90;;;;;;;;;;5048805;28;20059;-59
2022/03/03 03:25:14;;;;;;;8.35;5.25;;;;;;;;;;5048297;28;20033;-59
2022/03/03 03:27:42;;;;;;;8.55;5.50;;;;;;;;;;5048894;28;20086;-61
2022/03/03 03:30:13;;;;;;;8.93;5.85;;;;;;;;;;5048966;28;20024;-61
2022/03/03 03:32:39;;;;;;;9.02;5.45;;;;;;;;;;5048743;28;20107;-60
2022/03/03 03:35:05;;;;;;;9.35;5.78;;;;;;;;;;5048517;28;20129;-59
2022/03/03 03:37:32;;;;;;;9.18;5.28;;;;;;;;;;5046932;28;20125;-60
2022/03/03 03:39:58;;;;;;;8.18;4.90;;;;;;;;;;5049220;28;20029;-60
2022/03/03 03:42:24;;;;;;;10.32;5.40;;;;;;;;;;5045878;28;20698;-60
2022/03/03 03:44:50;;;;;;;8.55;5.38;;;;;;;;;;5038478;28;20063;-60
2022/03/03 03:47:16;;;;;;;8.52;4.95;;;;;;;;;;5047382;28;20423;-58
2022/03/03 03:49:42;;;;;;;8.95;5.10;;;;;;;;;;5046882;28;20060;-59
2022/03/03 03:52:08;;;;;;;11.20;5.20;;;;;;;;;;5047628;28;20036;-61
2022/03/03 03:54:34;;;;;;;8.35;4.80;;;;;;;;;;5046880;28;20044;-60
2022/03/03 03:57:00;;;;;;;8.25;4.88;;;;;;;;;;5047663;28;20362;-60
2022/03/03 03:59:26;;;;;;;7.75;4.95;;;;;;;;;;5043454;28;20390;-60
2022/03/03 04:01:53;;;;;;;7.30;5.25;;;;;;;;;;5046261;28;20033;-60
2022/03/03 04:04:19;;;;;;;10.40;5.25;;;;;;;;;;5041792;28;20053;-59
2022/03/03 04:06:45;;;;;;;9.63;5.38;;;;;;;;;;5046437;28;20088;-60
2022/03/03 04:09:10;;;;;;;9.15;5.20;;;;;;;;;;5047005;28;20056;-60
2022/03/03 04:11:37;;;;;;;9.18;5.90;;;;;;;;;;5046624;28;20777;-60
2022/03/03 04:14:03;;;;;;;7.72;4.90;;;;;;;;;;5047164;28;20465;-60
2022/03/03 04:16:29;;;;;;;8.55;5.57;;;;;;;;;;5047130;28;20040;-60
2022/03/03 04:18:55;;;;;;;8.95;5.68;;;;;;;;;;5048531;28;20025;-60
2022/03/03 04:21:21;;;;;;;9.07;5.65;;;;;;;;;;5044339;28;20017;-60
2022/03/03 04:23:47;;;;;;;8.75;5.88;;;;;;;;;;5045372;28;20037;-59
2022/03/03 04:26:13;;;;;;;10.00;5.75;;;;;;;;;;5048024;28;20075;-60
2022/03/03 04:28:39;;;;;;;8.07;5.20;;;;;;;;;;5049163;28;20057;-60
2022/03/03 04:31:05;;;;;;;9.05;5.57;;;;;;;;;;5050751;28;20625;-60
2022/03/03 04:33:31;;;;;;;9.10;5.85;;;;;;;;;;5051619;28;20052;-61
2022/03/03 04:35:57;;;;;;;8.05;4.82;;;;;;;;;;5050070;28;20029;-59
2022/03/03 04:38:24;;;;;;;7.57;5.05;;;;;;;;;;5051382;28;20471;-60
2022/03/03 04:40:50;;;;;;;7.90;5.47;;;;;;;;;;5051830;28;20025;-60
2022/03/03 04:43:16;;;;;;;8.20;4.97;;;;;;;;;;5052215;28;20021;-59
2022/03/03 04:45:45;;;;;;;7.88;4.93;;;;;;;;;;5051460;28;20554;-59
2022/03/03 04:48:12;;;;;;;7.40;5.10;;;;;;;;;;5051733;28;20053;-60
2022/03/03 04:50:38;;;;;;;7.88;4.97;;;;;;;;;;5051642;28;20037;-61
2022/03/03 04:53:04;;;;;;;8.32;5.13;;;;;;;;;;5051469;28;20029;-60
2022/03/03 04:55:30;;;;;;;8.30;5.10;;;;;;;;;;5051411;28;20083;-60
2022/03/03 04:57:56;;;;;;;8.90;5.32;;;;;;;;;;5051769;28;20067;-60
2022/03/03 05:00:22;;;;;;;8.95;5.45;;;;;;;;;;5051962;28;20078;-61
2022/03/03 05:02:48;;;;;;;8.63;5.05;;;;;;;;;;5049196;28;20498;-61
2022/03/03 05:05:15;;;;;;;9.75;6.32;;;;;;;;;;5031675;28;20471;-60
2022/03/03 05:07:41;;;;;;;7.70;4.80;;;;;;;;;;5049967;28;20025;-60
2022/03/03 05:10:07;;;;;;;11.57;6.10;;;;;;;;;;5045174;28;20037;-60
2022/03/03 05:12:33;;;;;;;10.40;5.82;;;;;;;;;;5039224;28;20022;-61
2022/03/03 05:14:59;;;;;;;10.02;6.05;;;;;;;;;;5044426;28;20341;-60
2022/03/03 05:17:26;;;;;;;9.35;6.20;;;;;;;;;;5051178;28;20438;-60
2022/03/03 05:19:52;;;;;;;10.27;5.72;;;;;;;;;;5051138;28;20466;-60
2022/03/03 05:22:18;;;;;;;8.70;5.82;;;;;;;;;;5050668;28;20025;-60
2022/03/03 05:24:49;;;;;;;10.95;6.80;;;;;;;;;;5051088;28;20025;-60
2022/03/03 05:27:15;;;;;;;9.52;6.60;;;;;;;;;;5048991;28;20079;-60
2022/03/03 05:29:41;;;;;;;9.15;6.00;;;;;;;;;;5041558;28;20479;-60
2022/03/03 05:32:07;;;;;;;12.02;7.13;;;;;;;;;;5040261;28;20443;-60
2022/03/03 05:34:33;;;;;;;9.27;5.97;;;;;;;;;;5045228;28;20429;-58
2022/03/03 05:37:00;;;;;;;11.48;6.78;;;;;;;;;;5037885;28;20034;-60
2022/03/03 05:39:27;;;;;;;10.82;6.82;;;;;;;;;;5045182;28;20151;-60
2022/03/03 05:41:56;;;;;;;9.95;5.75;;;;;;;;;;5039801;28;20029;-61
2022/03/03 05:44:22;;;;;;;11.73;7.53;;;;;;;;;;5044541;28;20033;-59
2022/03/03 05:46:49;;;;;;;11.52;7.53;;;;;;;;;;5041038;28;20091;-59
2022/03/03 05:49:16;;;;;;;10.65;7.00;;;;;;;;;;5042626;28;20095;-59
2022/03/03 05:51:42;;;;;;;9.57;6.78;;;;;;;;;;5040764;28;20431;-58
2022/03/03 05:54:08;;;;;;;9.65;6.63;;;;;;;;;;5043261;28;20033;-59
2022/03/03 05:56:40;;;;;;;11.20;7.05;;;;;;;;;;5040779;28;20100;-59
2022/03/03 05:59:06;;;;;;;10.70;7.57;;;;;;;;;;5044034;28;20036;-59
2022/03/03 06:01:38;;;;;;;11.25;7.45;;;;;;;;;;5039182;28;20447;-57
2022/03/03 06:04:04;;;;;;;11.38;7.45;;;;;;;;;;5036818;28;20060;-58
2022/03/03 06:06:31;;;;;;;12.10;6.97;;;;;;;;;;5050092;28;20040;-59
2022/03/03 06:09:04;;;;;;;14.63;7.70;;;;;;;;;;5043498;28;20068;-60
2022/03/03 06:11:30;;;;;;;12.35;6.45;;;;;;;;;;5033350;28;20025;-59
2022/03/03 06:14:06;;;;;;;10.85;6.65;;;;;;;;;;5046440;28;20111;-59
2022/03/03 06:16:32;;;;;;;15.25;7.00;;;;;;;;;;5050346;28;20025;-59
2022/03/03 06:19:00;;;;;;;9.85;6.95;;;;;;;;;;5048875;28;20106;-59
2022/03/03 06:21:26;;;;;;;11.63;6.43;;;;;;;;;;5047329;28;20020;-58
2022/03/03 06:23:53;;;;;;;11.65;6.60;;;;;;;;;;5031563;28;20095;-59
2022/03/03 06:26:19;;;;;;;10.77;6.28;;;;;;;;;;5046195;28;20494;-59
2022/03/03 06:28:46;;;;;;;9.98;5.68;;;;;;;;;;5040465;28;20460;-59
2022/03/03 06:31:13;;;;;;;11.48;6.50;;;;;;;;;;5047379;28;20025;-60
2022/03/03 06:33:40;;;;;;;15.10;6.78;;;;;;;;;;5049891;28;20081;-59
2022/03/03 06:36:06;;;;;;;11.88;6.82;;;;;;;;;;5049228;28;20152;-60
2022/03/03 06:38:32;;;;;;;10.50;6.25;;;;;;;;;;5049515;28;20028;-60
2022/03/03 06:40:58;;;;;;;13.50;6.95;;;;;;;;;;5049713;28;20331;-60
2022/03/03 06:43:29;;;;;;;13.52;6.10;;;;;;;;;;5049664;28;20084;-61
2022/03/03 06:45:55;;;;;;;30.15;6.95;;;;;;;;;;5049708;28;20056;-60
2022/03/03 06:48:21;;;;;;;22.20;7.88;;;;;;;;;;5043693;28;20535;-60
2022/03/03 06:50:50;;;;;;;23.02;7.25;;;;;;;;;;5038198;28;20612;-60
2022/03/03 06:53:17;;;;;;;23.00;6.03;;;;;;;;;;5048546;28;20108;-61
2022/03/03 06:55:43;;;;;;;13.77;7.13;;;;;;;;;;5048822;28;20139;-59
2022/03/03 06:58:11;;;;;;;17.52;7.15;;;;;;;;;;5049968;28;20029;-60
2022/03/03 07:00:37;;;;;;;21.63;6.15;;;;;;;;;;5041826;28;20128;-61
2022/03/03 07:03:05;;;;;;;14.80;6.45;;;;;;;;;;5047955;28;20445;-60
2022/03/03 07:05:31;;;;;;;13.48;6.13;;;;;;;;;;5047264;28;20147;-59
2022/03/03 07:07:57;;;;;;;14.82;6.22;;;;;;;;;;5041084;28;20083;-62
2022/03/03 07:10:25;;;;;;;17.85;5.70;;;;;;;;;;5035995;28;20025;-60
2022/03/03 07:12:54;;;;;;;20.73;6.00;;;;;;;;;;5042251;28;20021;-60
2022/03/03 07:15:21;;;;;;;17.92;6.18;;;;;;;;;;5038898;28;20025;-60
2022/03/03 07:17:49;;;;;;;14.27;6.25;;;;;;;;;;5042522;28;20022;-61
2022/03/03 07:20:41;;;;;;;13.50;6.03;;;;;;;;;;5048283;28;20547;-61
2022/03/03 07:23:09;;;;;;;16.63;5.85;;;;;;;;;;5040189;28;20064;-59
2022/03/03 07:25:35;;;;;;;19.92;6.25;;;;;;;;;;5048934;28;20029;-59
2022/03/03 07:28:02;;;;;;;17.75;5.57;;;;;;;;;;5048846;28;20115;-59
2022/03/03 07:30:29;;;;;;;12.95;5.30;;;;;;;;;;5048740;28;20134;-58
2022/03/03 07:32:55;;;;;;;17.33;6.03;;;;;;;;;;5048868;28;20412;-60
2022/03/03 07:35:23;;;;;;;12.57;6.05;;;;;;;;;;5048210;28;20098;-60
2022/03/03 07:37:59;;;;;;;13.82;6.53;;;;;;;;;;5049404;28;20601;-59
2022/03/03 07:40:29;;;;;;;17.30;6.03;;;;;;;;;;5047287;28;20033;-60
2022/03/03 07:42:55;;;;;;;18.85;5.32;;;;;;;;;;5049133;28;20059;-61
2022/03/03 07:45:22;;;;;;;18.05;5.57;;;;;;;;;;5048835;28;20025;-58
2022/03/03 07:47:53;;;;;;;13.00;5.40;;;;;;;;;;5048784;28;20391;-60
2022/03/03 07:50:19;;;;;;;13.20;5.75;;;;;;;;;;5048595;28;20700;-60
2022/03/03 07:52:45;;;;;;;15.65;5.88;;;;;;;;;;5043736;28;20101;-60
2022/03/03 07:55:12;;;;;;;17.60;6.35;;;;;;;;;;5038945;28;20078;-59
2022/03/03 07:57:40;;;;;;;16.42;5.90;;;;;;;;;;5040903;28;20029;-59
2022/03/03 08:00:07;;;;;;;12.23;5.43;;;;;;;;;;5041155;28;20026;-60
2022/03/03 08:02:34;;;;;;;13.73;5.05;;;;;;;;;;5038540;28;20040;-59
2022/03/03 08:05:01;;;;;;;8.98;4.75;;;;;;;;;;5041843;28;20139;-59
2022/03/03 08:07:28;;;;;;;15.73;10.15;;;;;;;;;;5037082;28;20041;-59
2022/03/03 08:09:58;;;;;;;17.15;11.48;;;;;;;;;;5051992;28;20021;-60
2022/03/03 08:12:25;;;;;;;17.80;9.52;;;;;;;;;;5052080;28;20116;-59
2022/03/03 08:14:51;;;;;;;14.32;8.30;;;;;;;;;;5052885;28;20035;-59
2022/03/03 08:17:18;;;;;;;12.00;7.68;;;;;;;;;;5052225;28;20065;-60
2022/03/03 08:19:44;;;;;;;13.23;8.05;;;;;;;;;;5052067;28;20553;-59
2022/03/03 08:22:12;;;;;;;18.17;8.70;;;;;;;;;;5052481;28;20024;-60
2022/03/03 08:24:43;;;;;;;15.38;9.60;;;;;;;;;;5051983;28;20033;-60
2022/03/03 08:27:10;;;;;;;14.10;10.43;;;;;;;;;;5052190;28;20044;-60
2022/03/03 08:29:36;;;;;;;15.27;9.13;;;;;;;;;;5051891;28;20025;-60
2022/03/03 08:32:02;;;;;;;15.88;9.20;;;;;;;;;;5051892;28;20079;-60
2022/03/03 08:34:41;;;;;;;19.73;9.15;;;;;;;;;;5044642;28;20052;-61
2022/03/03 08:37:09;;;;;;;17.45;8.40;;;;;;;;;;5051784;28;20514;-60
2022/03/03 08:39:38;;;;;;;17.08;10.02;;;;;;;;;;5051722;28;20029;-61
2022/03/03 08:42:08;;;;;;;15.20;7.95;;;;;;;;;;5051553;28;20104;-61
2022/03/03 08:44:35;;;;;;;19.05;9.15;;;;;;;;;;5051168;28;20033;-59
2022/03/03 08:47:04;;;;;;;17.77;8.20;;;;;;;;;;5050964;28;20121;-59
2022/03/03 08:49:36;;;;;;;13.82;7.75;;;;;;;;;;5058150;28;20029;-60
2022/03/03 08:52:03;;;;;;;15.70;7.28;;;;;;;;;;5055041;28;20110;-59
2022/03/03 08:54:29;;;;;;;15.85;7.72;;;;;;;;;;5052818;28;20028;-60
2022/03/03 08:56:55;;;;;;;12.82;7.45;;;;;;;;;;5050264;28;20099;-58
2022/03/03 08:59:21;;;;;;;12.35;7.10;;;;;;;;;;5057644;28;20044;-58
2022/03/03 09:01:49;;;;;;;14.45;7.93;;;;;;;;;;5054297;28;20072;-57
2022/03/03 09:04:15;;;;;;;13.48;7.40;;;;;;;;;;5049325;28;20059;-59
2022/03/03 09:06:42;;;;;;;12.60;6.65;;;;;;;;;;5049832;28;20112;-59
2022/03/03 09:09:08;;;;;;;13.13;7.57;;;;;;;;;;5058700;28;20494;-58
2022/03/03 09:11:34;;;;;;;11.55;7.63;;;;;;;;;;5061864;28;20025;-60
2022/03/03 09:14:00;;;;;;;16.17;6.43;;;;;;;;;;5065718;28;20036;-60
2022/03/03 09:16:26;;;;;;;15.80;6.70;;;;;;;;;;5050064;28;20053;-59
2022/03/03 09:18:54;;;;;;;11.65;7.05;;;;;;;;;;5056584;28;20090;-60
2022/03/03 09:21:20;;;;;;;12.90;7.07;;;;;;;;;;5056105;28;20124;-59
2022/03/03 09:23:46;;;;;;;12.70;6.32;;;;;;;;;;5063146;28;20029;-58
2022/03/03 09:26:13;;;;;;;12.88;6.22;;;;;;;;;;5051879;28;20041;-59
2022/03/03 09:28:40;;;;;;;14.10;6.40;;;;;;;;;;5049834;28;20113;-59
2022/03/03 09:31:06;;;;;;;9.43;5.43;;;;;;;;;;5051301;28;20056;-59
2022/03/03 09:33:32;;;;;;;13.50;6.20;;;;;;;;;;5061023;28;20466;-59
2022/03/03 09:35:58;;;;;;;12.40;6.00;;;;;;;;;;5063033;28;20080;-59
2022/03/03 09:38:24;;;;;;;14.70;6.30;;;;;;;;;;5060514;28;20021;-59
2022/03/03 09:40:50;;;;;;;8.93;5.78;;;;;;;;;;5063904;28;20036;-58
2022/03/03 09:43:16;;;;;;;10.20;5.78;;;;;;;;;;5048988;28;20032;-58
2022/03/03 09:45:42;;;;;;;11.88;5.70;;;;;;;;;;5048957;28;20041;-59
2022/03/03 09:48:09;;;;;;;12.30;5.85;;;;;;;;;;5049885;28;20041;-58
2022/03/03 09:50:37;;;;;;;10.98;5.10;;;;;;;;;;5068952;28;20093;-59
2022/03/03 09:53:10;;;;;;;12.07;5.95;;;;;;;;;;5049510;28;20056;-58
2022/03/03 09:55:36;;;;;;;12.68;5.88;;;;;;;;;;5048762;28;20147;-59
2022/03/03 09:58:03;;;;;;;11.07;5.40;;;;;;;;;;5048331;28;20112;-59
2022/03/03 10:00:33;;;;;;;12.52;6.13;;;;;;;;;;5052196;28;20091;-60
2022/03/03 10:03:26;;;;;;;9.70;4.55;;;;;;;;;;5053700;28;20036;-59
2022/03/03 10:05:53;;;;;;;8.98;4.90;;;;;;;;;;5027161;28;20539;-59
2022/03/03 10:08:26;;;;;;;8.98;5.15;;;;;;;;;;5049911;28;20060;-60
2022/03/03 10:10:56;;;;;;;10.43;5.45;;;;;;;;;;5054633;28;20115;-59
2022/03/03 10:13:23;;;;;;;14.00;4.82;;;;;;;;;;5052736;28;20032;-59
2022/03/03 10:15:56;;;;;;;15.68;5.60;;;;;;;;;;5048967;28;20210;-59
2022/03/03 10:18:23;;;;;;;9.15;4.45;;;;;;;;;;5055022;28;20025;-58
2022/03/03 10:20:49;;;;;;;12.77;4.95;;;;;;;;;;5050864;28;20178;-59
2022/03/03 10:23:16;;;;;;;11.93;5.20;;;;;;;;;;5051033;28;20096;-59
2022/03/03 10:25:44;;;;;;;9.07;4.65;;;;;;;;;;5061666;28;20063;-58
2022/03/03 10:28:13;;;;;;;9.45;4.93;;;;;;;;;;5049795;28;20029;-59
2022/03/03 10:30:48;;;;;;;10.60;4.72;;;;;;;;;;5048655;28;20104;-59
2022/03/03 10:33:15;;;;;;;7.50;4.55;;;;;;;;;;5048978;28;20013;-59
2022/03/03 10:35:41;;;;;;;8.20;4.80;;;;;;;;;;5048650;28;20546;-59
2022/03/03 10:38:07;;;;;;;10.75;4.60;;;;;;;;;;5057645;28;20666;-59
2022/03/03 10:40:38;;;;;;;9.95;4.50;;;;;;;;;;5038299;28;20056;-58
2022/03/03 10:43:05;;;;;;;9.43;4.20;;;;;;;;;;5052294;28;20025;-59
2022/03/03 10:45:32;;;;;;;6.68;4.38;;;;;;;;;;5052362;28;20491;-58
2022/03/03 10:48:00;;;;;;;8.02;4.63;;;;;;;;;;5061629;28;20024;-58
2022/03/03 10:50:26;;;;;;;10.75;4.78;;;;;;;;;;5051917;28;20090;-59
2022/03/03 10:52:52;;;;;;;7.07;4.47;;;;;;;;;;5062528;28;20609;-60
2022/03/03 10:55:20;;;;;;;14.70;5.57;;;;;;;;;;5054958;28;20502;-59
2022/03/03 10:57:58;;;;;;;7.82;4.55;;;;;;;;;;5062788;28;20016;-60
2022/03/03 11:00:27;;;;;;;9.52;5.13;;;;;;;;;;5051985;28;20024;-59
2022/03/03 11:02:54;;;;;;;9.50;4.50;;;;;;;;;;5062329;28;20025;-58
2022/03/03 11:05:22;;;;;;;10.45;4.25;;;;;;;;;;5048361;28;20063;-59
2022/03/03 11:07:48;;;;;;;8.52;4.82;;;;;;;;;;5048761;28;20033;-58
2022/03/03 11:10:16;;;;;;;7.47;4.40;;;;;;;;;;5051344;28;20028;-60
2022/03/03 11:12:45;;;;;;;7.75;4.18;;;;;;;;;;5054513;28;20115;-60
2022/03/03 11:15:12;;;;;;;8.13;4.38;;;;;;;;;;5054658;28;20029;-60
2022/03/03 11:17:39;;;;;;;9.35;4.72;;;;;;;;;;5048417;28;20029;-59
2022/03/03 11:20:05;;;;;;;8.48;4.38;;;;;;;;;;5053099;28;20474;-59
2022/03/03 11:22:32;;;;;;;9.52;4.60;;;;;;;;;;5048487;28;20082;-61
2022/03/03 11:25:01;;;;;;;6.30;3.90;;;;;;;;;;5051952;28;20045;-60
2022/03/03 11:27:35;;;;;;;7.07;4.22;;;;;;;;;;5048438;28;20119;-59
2022/03/03 11:30:14;;;;;;;8.70;4.30;;;;;;;;;;5056209;28;20025;-59
2022/03/03 11:32:40;;;;;;;7.55;4.15;;;;;;;;;;5041703;28;20044;-59
2022/03/03 11:35:10;;;;;;;7.32;4.43;;;;;;;;;;5049291;28;20028;-60
2022/03/03 11:37:40;;;;;;;7.88;4.25;;;;;;;;;;5050454;28;20116;-59
2022/03/03 11:40:07;;;;;;;7.30;4.38;;;;;;;;;;5062877;28;20016;-59
2022/03/03 11:42:39;;;;;;;8.30;3.58;;;;;;;;;;5066272;28;20021;-59
2022/03/03 11:45:11;;;;;;;6.40;4.10;;;;;;;;;;5064624;28;20036;-59
2022/03/03 11:47:39;;;;;;;6.63;4.03;;;;;;;;;;5054630;28;20171;-58
2022/03/03 11:50:24;;;;;;;7.03;3.97;;;;;;;;;;5053846;28;20498;-59
2022/03/03 11:53:02;;;;;;;7.13;3.88;;;;;;;;;;5041361;28;20061;-58
2022/03/03 11:55:34;;;;;;;7.50;4.00;;;;;;;;;;5058752;28;20041;-60
2022/03/03 11:58:03;;;;;;;6.78;4.03;;;;;;;;;;5054405;28;20447;-57
2022/03/03 12:00:30;;;;;;;9.25;4.10;;;;;;;;;;5067636;28;20507;-58
2022/03/03 12:03:06;;;;;;;13.55;4.57;;;;;;;;;;5051957;28;20017;-59
2022/03/03 12:05:32;;;;;;;8.93;4.53;;;;;;;;;;5060553;28;20466;-59
2022/03/03 12:08:03;;;;;;;7.80;3.88;;;;;;;;;;5061388;28;20036;-58
2022/03/03 12:10:29;;;;;;;7.90;4.18;;;;;;;;;;5067643;28;20033;-58
2022/03/03 12:13:14;;;;;;;7.47;3.88;;;;;;;;;;5051731;28;20031;-58
2022/03/03 12:15:41;;;;;;;9.85;3.53;;;;;;;;;;5051761;28;20033;-59
2022/03/03 12:18:08;;;;;;;10.93;4.82;;;;;;;;;;5052522;28;20100;-59
2022/03/03 12:20:35;;;;;;;6.30;3.78;;;;;;;;;;5054755;28;20039;-58
2022/03/03 12:23:08;;;;;;;8.20;3.63;;;;;;;;;;5058727;28;20029;-59
2022/03/03 12:25:54;;;;;;;12.52;4.18;;;;;;;;;;5062568;28;20560;-58
2022/03/03 12:28:20;;;;;;;7.13;3.50;;;;;;;;;;5053105;28;20033;-58
2022/03/03 12:30:47;;;;;;;8.38;3.95;;;;;;;;;;5066167;28;20104;-57
2022/03/03 12:33:30;;;;;;;6.88;3.53;;;;;;;;;;5050627;28;20376;-59
2022/03/03 12:36:00;;;;;;;9.02;3.92;;;;;;;;;;5051888;28;20108;-58
2022/03/03 12:38:26;;;;;;;;;;;;;;;;;;5054711;28;20605;-58
2022/03/03 12:40:54;;;;;;;10.27;3.83;;;;;;;;;;5064717;28;19970;-59
2022/03/03 12:43:20;;;;;;;7.75;3.63;;;;;;;;;;5050403;28;20037;-57
2022/03/03 12:45:48;;;;;;;6.07;3.92;;;;;;;;;;5050518;28;20106;-58
2022/03/03 12:48:14;;;;;;;7.32;3.40;;;;;;;;;;5056118;28;20388;-57
2022/03/03 12:50:40;;;;;;;7.50;3.67;;;;;;;;;;5057627;28;20079;-58
2022/03/03 12:53:16;;;;;;;6.82;4.20;;;;;;;;;;5058420;28;20383;-58
2022/03/03 12:55:48;;;;;;;7.82;3.95;;;;;;;;;;5062162;28;20064;-58
2022/03/03 12:58:15;;;;;;;7.15;3.70;;;;;;;;;;5052625;28;20029;-58
2022/03/03 13:00:43;;;;;;;6.50;3.58;;;;;;;;;;5060048;28;20052;-60
2022/03/03 13:03:10;;;;;;;9.10;3.78;;;;;;;;;;5060304;28;20846;-59
2022/03/03 13:05:43;;;;;;;5.63;3.47;;;;;;;;;;5048416;28;20507;-59
2022/03/03 13:08:20;;;;;;;7.05;3.40;;;;;;;;;;5051211;28;20106;-58
2022/03/03 13:10:46;;;;;;;8.27;3.40;;;;;;;;;;5064710;28;20106;-56
2022/03/03 13:13:13;;;;;;;7.72;3.83;;;;;;;;;;5061406;28;20021;-58
2022/03/03 13:15:39;;;;;;;7.30;3.58;;;;;;;;;;5050135;28;20120;-59
2022/03/03 13:18:05;;;;;;;7.20;3.78;;;;;;;;;;5050556;28;20024;-59
2022/03/03 13:20:37;;;;;;;8.13;3.70;;;;;;;;;;5052735;28;20017;-58
2022/03/03 13:23:04;;;;;;;9.07;3.67;;;;;;;;;;5057565;28;20021;-58
2022/03/03 13:25:30;;;;;;;6.10;3.45;;;;;;;;;;5046586;28;20166;-58
2022/03/03 13:27:56;;;;;;;7.13;3.20;;;;;;;;;;5050772;28;20021;-57
2022/03/03 13:30:22;;;;;;;9.20;3.60;;;;;;;;;;5050605;28;20108;-59
2022/03/03 13:32:50;;;;;;;6.53;3.70;;;;;;;;;;5057417;28;20150;-58
2022/03/03 13:35:17;;;;;;;7.93;3.30;;;;;;;;;;5062456;28;20077;-59
2022/03/03 13:37:43;;;;;;;5.88;3.50;;;;;;;;;;5063874;28;20081;-59
2022/03/03 13:40:19;;;;;;;6.80;3.13;;;;;;;;;;5052482;28;20104;-59
2022/03/03 13:42:46;;;;;;;6.47;3.70;;;;;;;;;;5050375;28;20035;-58
2022/03/03 13:45:12;;;;;;;5.45;2.92;;;;;;;;;;5051298;28;20090;-57
2022/03/03 13:47:40;;;;;;;8.35;4.07;;;;;;;;;;5063044;28;20041;-58
2022/03/03 13:50:07;;;;;;;9.15;3.72;;;;;;;;;;5053010;28;20021;-58
2022/03/03 13:52:37;;;;;;;6.10;3.50;;;;;;;;;;5049720;28;20031;-58
2022/03/03 13:55:12;;;;;;;6.88;3.35;;;;;;;;;;5049934;28;20021;-58
2022/03/03 13:57:40;;;;;;;8.70;4.22;;;;;;;;;;5062674;28;20040;-59
2022/03/03 14:00:09;;;;;;;8.10;3.78;;;;;;;;;;5052828;28;20463;-59
2022/03/03 14:02:35;;;;;;;4.97;2.65;;;;;;;;;;5048966;28;20041;-59
2022/03/03 14:05:01;;;;;;;5.93;3.17;;;;;;;;;;5050506;28;20045;-59
2022/03/03 14:07:31;;;;;;;7.22;3.35;;;;;;;;;;5050534;28;20037;-59
2022/03/03 14:09:58;;;;;;;5.40;3.22;;;;;;;;;;5059526;28;20029;-59
2022/03/03 14:12:24;;;;;;;10.57;3.88;;;;;;;;;;5052032;28;20040;-58
2022/03/03 14:14:50;;;;;;;7.43;3.38;;;;;;;;;;5062704;28;20581;-57
2022/03/03 14:17:16;;;;;;;8.23;3.45;;;;;;;;;;5048909;28;20044;-57
2022/03/03 14:19:43;;;;;;;6.05;3.33;;;;;;;;;;5048985;28;20087;-57
2022/03/03 14:22:10;;;;;;;6.43;3.50;;;;;;;;;;5051848;28;20031;-58
2022/03/03 14:24:38;;;;;;;6.30;3.33;;;;;;;;;;5054017;28;20107;-59
2022/03/03 14:27:04;;;;;;;7.18;3.42;;;;;;;;;;5058508;28;20086;-59
2022/03/03 14:29:30;;;;;;;5.93;3.08;;;;;;;;;;5049028;28;20033;-59
2022/03/03 14:31:56;;;;;;;6.43;3.15;;;;;;;;;;5048666;28;20025;-59
2022/03/03 14:34:22;;;;;;;7.03;3.53;;;;;;;;;;5047871;28;20029;-56
2022/03/03 14:36:49;;;;;;;7.28;3.40;;;;;;;;;;5049141;28;20037;-58
2022/03/03 14:39:15;;;;;;;9.00;3.38;;;;;;;;;;5049071;28;20025;-58
2022/03/03 14:41:41;;;;;;;5.40;2.95;;;;;;;;;;5047926;28;20025;-58